createdAt,value
2022-08-10T00:00:26.664Z,0.70
2022-08-10T00:01:26.749Z,0.70
2022-08-10T00:02:26.751Z,0.80
2022-08-10T00:03:27.661Z,0.80
2022-08-10T00:04:26.621Z,0.80
2022-08-10T00:05:26.637Z,0.80
2022-08-10T00:06:26.609Z,0.70
2022-08-10T00:07:26.611Z,0.90
2022-08-10T00:08:26.582Z,0.70
2022-08-10T00:09:27.381Z,0.60
2022-08-10T00:10:26.558Z,0.90
2022-08-10T00:11:26.547Z,0.80
2022-08-10T00:12:54.488Z,0.70
2022-08-10T00:13:27.546Z,0.60
2022-08-10T00:14:26.525Z,0.60
2022-08-10T00:15:52.816Z,0.80
2022-08-10T00:16:27.490Z,0.70
2022-08-10T00:17:27.382Z,0.70
2022-08-10T00:18:31.843Z,0.80
2022-08-10T00:19:27.473Z,0.70
2022-08-10T00:20:27.448Z,0.80
2022-08-10T00:21:27.148Z,1.00
2022-08-10T00:22:26.630Z,0.70
2022-08-10T00:23:26.427Z,0.80
2022-08-10T00:24:26.432Z,0.70
2022-08-10T00:25:26.397Z,0.80
2022-08-10T00:26:26.392Z,0.80
2022-08-10T00:28:01.426Z,0.90
2022-08-10T00:28:27.375Z,1.00
2022-08-10T00:29:26.371Z,0.70
2022-08-10T00:30:26.372Z,0.70
2022-08-10T00:31:26.330Z,0.90
2022-08-10T00:32:26.363Z,0.90
2022-08-10T00:33:26.308Z,0.80
2022-08-10T00:34:26.322Z,0.90
2022-08-10T00:35:26.282Z,0.80
2022-08-10T00:36:26.281Z,0.70
2022-08-10T00:37:27.265Z,0.70
2022-08-10T00:38:26.256Z,0.80
2022-08-10T00:39:26.363Z,1.10
2022-08-10T00:40:37.316Z,0.70
2022-08-10T00:41:27.214Z,0.80
2022-08-10T00:42:28.895Z,0.80
2022-08-10T00:43:26.196Z,0.70
2022-08-10T00:44:26.198Z,0.80
2022-08-10T00:45:26.181Z,0.90
2022-08-10T00:46:26.190Z,0.90
2022-08-10T00:47:36.910Z,0.70
2022-08-10T00:48:28.106Z,0.80
2022-08-10T00:49:26.138Z,0.70
2022-08-10T00:50:26.121Z,0.80
2022-08-10T00:51:40.515Z,0.70
2022-08-10T00:52:27.208Z,0.70
2022-08-10T00:53:26.239Z,0.80
2022-08-10T00:54:26.075Z,1.10
2022-08-10T00:55:26.093Z,0.80
2022-08-10T00:57:12.278Z,0.70
2022-08-10T00:57:33.885Z,0.70
2022-08-10T00:58:26.053Z,0.80
2022-08-10T00:59:26.028Z,0.70
2022-08-10T01:00:26.011Z,0.90
2022-08-10T01:02:09.663Z,0.90
2022-08-10T01:02:27.115Z,0.70
2022-08-10T01:04:57.285Z,0.80
2022-08-10T01:04:58.232Z,1.00
2022-08-10T01:05:26.958Z,0.80
2022-08-10T01:06:25.947Z,0.90
2022-08-10T01:07:25.926Z,1.10
2022-08-10T01:08:25.949Z,1.00
2022-08-10T01:09:25.907Z,1.00
2022-08-10T01:10:25.916Z,1.00
2022-08-10T01:12:37.283Z,0.60
2022-08-10T01:12:38.516Z,0.80
2022-08-10T01:13:26.881Z,0.80
2022-08-10T01:14:25.872Z,0.90
2022-08-10T01:15:25.862Z,1.00
2022-08-10T01:16:25.844Z,0.70
2022-08-10T01:17:50.815Z,0.90
2022-08-10T01:18:26.835Z,1.00
2022-08-10T01:19:25.800Z,0.90
2022-08-10T01:20:30.253Z,0.80
2022-08-10T01:21:25.803Z,0.80
2022-08-10T01:22:25.769Z,0.90
2022-08-10T01:23:25.759Z,0.80
2022-08-10T01:24:25.765Z,0.80
2022-08-10T01:25:25.739Z,0.90
2022-08-10T01:26:30.815Z,1.20
2022-08-10T01:27:27.144Z,0.90
2022-08-10T01:28:25.715Z,0.80
2022-08-10T01:29:25.695Z,0.70
2022-08-10T01:30:25.688Z,0.90
2022-08-10T01:31:25.669Z,1.00
2022-08-10T01:32:25.677Z,0.80
2022-08-10T01:33:31.848Z,0.80
2022-08-10T01:34:26.638Z,1.00
2022-08-10T01:35:25.692Z,0.80
2022-08-10T01:36:32.003Z,0.90
2022-08-10T01:37:26.610Z,1.10
2022-08-10T01:38:25.600Z,1.10
2022-08-10T01:39:25.634Z,0.80
2022-08-10T01:40:25.633Z,0.80
2022-08-10T01:41:25.582Z,1.00
2022-08-10T01:42:25.562Z,1.00
2022-08-10T01:43:25.559Z,1.00
2022-08-10T01:44:25.529Z,1.20
2022-08-10T01:45:25.528Z,1.00
2022-08-10T01:46:25.551Z,1.00
2022-08-10T01:47:25.505Z,0.90
2022-08-10T01:48:26.399Z,1.10
2022-08-10T01:49:25.480Z,1.10
2022-08-10T01:50:25.494Z,0.90
2022-08-10T01:51:25.450Z,0.80
2022-08-10T01:52:25.460Z,1.10
2022-08-10T01:53:25.448Z,0.90
2022-08-10T01:54:25.411Z,0.90
2022-08-10T01:55:26.404Z,1.10
2022-08-10T01:56:25.402Z,0.90
2022-08-10T01:57:25.392Z,1.00
2022-08-10T01:58:25.900Z,0.90
2022-08-10T01:59:25.375Z,1.10
2022-08-10T02:00:25.350Z,0.90
2022-08-10T02:01:26.439Z,1.00
2022-08-10T02:02:25.339Z,0.80
2022-08-10T02:03:25.340Z,0.80
2022-08-10T02:04:25.312Z,1.10
2022-08-10T02:05:25.296Z,1.10
2022-08-10T02:06:25.288Z,1.00
2022-08-10T02:07:25.272Z,0.70
2022-08-10T02:08:25.277Z,0.90
2022-08-10T02:09:25.295Z,0.90
2022-08-10T02:10:25.243Z,1.20
2022-08-10T02:11:25.240Z,1.00
2022-08-10T02:12:25.213Z,1.20
2022-08-10T02:13:25.226Z,1.00
2022-08-10T02:14:25.228Z,1.00
2022-08-10T02:15:26.198Z,1.00
2022-08-10T02:16:25.176Z,1.10
2022-08-10T02:18:00.082Z,1.10
2022-08-10T02:18:26.160Z,1.20
2022-08-10T02:19:25.171Z,0.90
2022-08-10T02:20:25.148Z,0.90
2022-08-10T02:21:25.144Z,1.10
2022-08-10T02:22:38.296Z,1.10
2022-08-10T02:23:26.103Z,1.00
2022-08-10T02:24:25.099Z,1.10
2022-08-10T02:25:40.006Z,1.00
2022-08-10T02:26:26.086Z,1.00
2022-08-10T02:27:26.073Z,1.10
2022-08-10T02:28:27.383Z,1.00
2022-08-10T02:29:26.033Z,1.10
2022-08-10T02:30:25.025Z,1.00
2022-08-10T02:31:25.006Z,1.10
2022-08-10T02:32:52.860Z,1.10
2022-08-10T02:33:32.901Z,1.00
2022-08-10T02:34:24.983Z,0.90
2022-08-10T02:35:25.992Z,0.90
2022-08-10T02:36:24.975Z,1.20
2022-08-10T02:37:24.943Z,1.00
2022-08-10T02:38:59.831Z,1.20
2022-08-10T02:39:27.031Z,1.20
2022-08-10T02:45:12.824Z,1.10
2022-08-10T02:45:14.588Z,1.30
2022-08-10T02:45:21.963Z,1.00
2022-08-10T02:45:22.799Z,1.00
2022-08-10T02:45:25.602Z,1.10
2022-08-10T02:45:30.890Z,1.10
2022-08-10T02:46:26.355Z,1.20
2022-08-10T02:47:24.852Z,1.30
2022-08-10T02:48:24.822Z,1.20
2022-08-10T02:49:25.408Z,1.30
2022-08-10T02:50:24.822Z,1.30
2022-08-10T02:52:06.465Z,1.30
2022-08-10T02:52:25.794Z,1.00
2022-08-10T02:53:54.514Z,1.10
2022-08-10T02:54:25.757Z,1.00
2022-08-10T02:55:27.164Z,1.00
2022-08-10T02:56:25.737Z,1.10
2022-08-10T02:57:24.733Z,1.10
2022-08-10T02:58:24.721Z,1.10
2022-08-10T02:59:24.725Z,1.00
2022-08-10T03:00:24.691Z,1.00
2022-08-10T03:01:24.731Z,1.20
2022-08-10T03:02:24.668Z,1.10
2022-08-10T03:03:24.679Z,1.00
2022-08-10T03:04:55.856Z,1.20
2022-08-10T03:05:25.635Z,1.00
2022-08-10T03:06:24.641Z,1.10
2022-08-10T03:07:43.766Z,1.10
2022-08-10T03:08:25.604Z,1.20
2022-08-10T03:09:24.601Z,1.00
2022-08-10T03:10:24.595Z,1.20
2022-08-10T03:12:36.289Z,0.90
2022-08-10T03:12:36.895Z,0.90
2022-08-10T03:13:25.557Z,1.30
2022-08-10T03:14:24.554Z,1.00
2022-08-10T03:15:24.528Z,1.20
2022-08-10T03:16:24.517Z,1.30
2022-08-10T03:17:25.502Z,1.00
2022-08-10T03:18:24.513Z,1.20
2022-08-10T03:20:35.415Z,1.00
2022-08-10T03:20:37.925Z,1.10
2022-08-10T03:21:26.410Z,1.20
2022-08-10T03:22:24.459Z,1.00
2022-08-10T03:23:24.457Z,1.20
2022-08-10T03:24:30.121Z,1.20
2022-08-10T03:25:25.440Z,1.30
2022-08-10T03:26:24.424Z,1.10
2022-08-10T03:27:24.399Z,1.10
2022-08-10T03:28:24.402Z,1.40
2022-08-10T03:29:24.410Z,1.20
2022-08-10T03:30:29.659Z,1.10
2022-08-10T03:31:25.366Z,1.10
2022-08-10T03:32:24.369Z,1.30
2022-08-10T03:33:24.350Z,1.40
2022-08-10T03:34:33.636Z,1.20
2022-08-10T03:35:25.305Z,1.10
2022-08-10T03:36:42.401Z,1.70
2022-08-10T03:37:25.300Z,1.20
2022-08-10T03:38:24.287Z,1.00
2022-08-10T03:39:24.328Z,1.10
2022-08-10T03:40:24.257Z,1.10
2022-08-10T03:41:25.243Z,1.00
2022-08-10T03:42:24.263Z,1.10
2022-08-10T03:43:24.252Z,1.20
2022-08-10T03:44:24.217Z,1.20
2022-08-10T03:45:24.209Z,1.20
2022-08-10T03:46:24.188Z,1.10
2022-08-10T03:47:24.177Z,1.30
2022-08-10T03:48:24.206Z,1.40
2022-08-10T03:49:24.156Z,1.20
2022-08-10T03:50:45.332Z,1.00
2022-08-10T03:51:25.134Z,1.40
2022-08-10T03:52:24.114Z,1.00
2022-08-10T03:53:24.299Z,1.20
2022-08-10T03:54:25.117Z,1.10
2022-08-10T03:56:26.868Z,1.20
2022-08-10T03:56:26.927Z,1.20
2022-08-10T03:57:25.061Z,1.10
2022-08-10T03:58:24.051Z,1.30
2022-08-10T03:59:24.045Z,1.10
2022-08-10T04:00:24.052Z,1.20
2022-08-10T04:02:46.908Z,1.20
2022-08-10T04:02:47.142Z,1.30
2022-08-10T04:03:25.014Z,1.40
2022-08-10T04:04:25.451Z,1.20
2022-08-10T04:05:23.984Z,1.30
2022-08-10T04:06:24.970Z,1.50
2022-08-10T04:07:23.969Z,1.40
2022-08-10T04:08:23.950Z,1.40
2022-08-10T04:09:23.918Z,1.40
2022-08-10T04:10:23.936Z,1.30
2022-08-10T04:11:23.928Z,1.40
2022-08-10T04:12:23.906Z,1.20
2022-08-10T04:13:23.890Z,1.20
2022-08-10T04:14:38.513Z,1.20
2022-08-10T04:15:24.885Z,1.20
2022-08-10T04:16:23.863Z,1.30
2022-08-10T04:18:03.908Z,1.40
2022-08-10T04:18:24.853Z,1.40
2022-08-10T04:19:23.838Z,1.40
2022-08-10T04:20:23.840Z,1.20
2022-08-10T04:21:23.837Z,1.20
2022-08-10T04:22:23.808Z,1.20
2022-08-10T04:23:23.795Z,1.30
2022-08-10T04:24:24.693Z,1.30
2022-08-10T04:25:24.826Z,1.40
2022-08-10T04:26:24.413Z,1.30
2022-08-10T04:27:23.741Z,1.30
2022-08-10T04:28:23.745Z,1.30
2022-08-10T04:29:23.713Z,1.20
2022-08-10T04:30:23.946Z,1.30
2022-08-10T04:31:23.709Z,1.50
2022-08-10T04:32:23.675Z,1.50
2022-08-10T04:33:23.716Z,1.40
2022-08-10T04:34:23.658Z,1.40
2022-08-10T04:35:23.646Z,1.30
2022-08-10T04:36:23.632Z,1.20
2022-08-10T04:37:23.637Z,1.40
2022-08-10T04:38:23.611Z,1.50
2022-08-10T04:39:23.674Z,1.40
2022-08-10T04:40:28.836Z,1.40
2022-08-10T04:41:24.601Z,1.60
2022-08-10T04:42:23.598Z,1.40
2022-08-10T04:43:23.548Z,1.40
2022-08-10T04:44:23.550Z,1.40
2022-08-10T04:45:23.545Z,1.40
2022-08-10T04:46:42.475Z,1.30
2022-08-10T04:48:00.802Z,1.20
2022-08-10T04:48:43.296Z,1.30
2022-08-10T04:49:55.251Z,1.40
2022-08-10T04:50:24.480Z,1.60
2022-08-10T04:51:23.475Z,1.70
2022-08-10T04:52:25.315Z,1.50
2022-08-10T04:53:23.477Z,1.20
2022-08-10T04:54:23.435Z,1.50
2022-08-10T04:55:24.436Z,1.40
2022-08-10T04:56:32.038Z,1.10
2022-08-10T04:57:24.405Z,1.40
2022-08-10T04:58:23.408Z,1.50
2022-08-10T04:59:23.408Z,1.40
2022-08-10T05:00:25.933Z,1.40
2022-08-10T05:01:24.995Z,1.20
2022-08-10T05:02:31.186Z,1.30
2022-08-10T05:03:24.915Z,1.30
2022-08-10T05:04:34.658Z,1.30
2022-08-10T05:05:24.314Z,1.50
2022-08-10T05:06:23.932Z,1.30
2022-08-10T05:07:23.387Z,1.20
2022-08-10T05:08:23.924Z,1.20
2022-08-10T05:09:23.456Z,1.30
2022-08-10T05:10:23.929Z,1.40
2022-08-10T05:11:24.310Z,1.40
2022-08-10T05:12:23.966Z,1.20
2022-08-10T05:13:23.933Z,1.40
2022-08-10T05:14:23.451Z,1.40
2022-08-10T05:15:23.206Z,1.30
2022-08-10T05:16:32.041Z,1.30
2022-08-10T05:17:24.937Z,1.30
2022-08-10T05:18:23.944Z,1.00
2022-08-10T05:20:03.684Z,1.40
2022-08-10T05:20:24.181Z,1.20
2022-08-10T05:21:52.114Z,1.30
2022-08-10T05:22:24.931Z,1.30
2022-08-10T05:23:23.124Z,1.30
2022-08-10T05:24:23.119Z,1.20
2022-08-10T05:25:23.093Z,1.30
2022-08-10T05:26:23.102Z,1.20
2022-08-10T05:27:23.968Z,1.20
2022-08-10T05:28:23.633Z,1.50
2022-08-10T05:29:23.071Z,1.30
2022-08-10T05:30:23.073Z,1.30
2022-08-10T05:31:24.208Z,1.30
2022-08-10T05:32:23.024Z,1.20
2022-08-10T05:33:23.035Z,1.20
2022-08-10T05:34:23.007Z,1.30
2022-08-10T05:35:23.030Z,1.30
2022-08-10T05:36:23.004Z,1.40
2022-08-10T05:38:10.819Z,1.50
2022-08-10T05:38:23.977Z,1.10
2022-08-10T05:39:28.801Z,1.40
2022-08-10T05:40:23.937Z,1.10
2022-08-10T05:41:22.931Z,1.20
2022-08-10T05:42:22.963Z,1.40
2022-08-10T05:43:22.895Z,1.40
2022-08-10T05:44:22.898Z,1.80
2022-08-10T05:45:22.874Z,1.10
2022-08-10T05:46:22.879Z,1.40
2022-08-10T05:47:22.881Z,1.30
2022-08-10T05:48:55.715Z,1.30
2022-08-10T05:49:23.854Z,1.10
2022-08-10T05:50:22.827Z,1.30
2022-08-10T05:51:22.826Z,1.30
2022-08-10T05:52:22.785Z,1.30
2022-08-10T05:54:02.377Z,1.30
2022-08-10T05:54:23.785Z,1.30
2022-08-10T05:55:22.767Z,1.50
2022-08-10T05:56:23.437Z,1.20
2022-08-10T05:57:22.745Z,1.30
2022-08-10T05:58:22.799Z,1.20
2022-08-10T06:00:31.005Z,1.30
2022-08-10T06:00:37.481Z,1.20
2022-08-10T06:01:23.729Z,1.10
2022-08-10T06:02:31.873Z,1.20
2022-08-10T06:03:23.884Z,1.40
2022-08-10T06:04:22.663Z,1.20
2022-08-10T06:05:22.653Z,1.10
2022-08-10T06:06:25.007Z,1.10
2022-08-10T06:07:22.656Z,1.10
2022-08-10T06:08:22.628Z,1.20
2022-08-10T06:09:22.612Z,1.40
2022-08-10T06:10:32.621Z,1.10
2022-08-10T06:12:28.114Z,1.10
2022-08-10T06:12:29.088Z,1.20
2022-08-10T06:13:29.653Z,1.10
2022-08-10T06:14:28.377Z,1.40
2022-08-10T06:15:51.653Z,1.20
2022-08-10T06:16:23.568Z,1.00
2022-08-10T06:17:22.521Z,1.40
2022-08-10T06:18:22.520Z,1.30
2022-08-10T06:19:22.508Z,1.10
2022-08-10T06:20:22.497Z,1.10
2022-08-10T06:21:22.503Z,1.10
2022-08-10T06:22:22.477Z,1.00
2022-08-10T06:23:22.461Z,1.40
2022-08-10T06:24:22.456Z,1.30
2022-08-10T06:26:09.083Z,1.20
2022-08-10T06:26:23.448Z,1.10
2022-08-10T06:27:34.427Z,1.00
2022-08-10T06:28:23.404Z,1.00
2022-08-10T06:29:22.394Z,1.20
2022-08-10T06:30:22.392Z,1.10
2022-08-10T06:31:22.472Z,1.10
2022-08-10T06:32:22.360Z,1.10
2022-08-10T06:33:22.347Z,1.20
2022-08-10T06:34:22.339Z,1.10
2022-08-10T06:35:24.941Z,1.10
2022-08-10T06:36:22.313Z,0.90
2022-08-10T06:37:22.341Z,1.20
2022-08-10T06:38:22.952Z,0.90
2022-08-10T06:39:33.530Z,1.10
2022-08-10T06:40:23.304Z,1.20
2022-08-10T06:41:23.314Z,1.10
2022-08-10T06:42:23.271Z,1.10
2022-08-10T06:43:22.538Z,1.20
2022-08-10T06:44:22.233Z,0.90
2022-08-10T06:45:22.222Z,1.00
2022-08-10T06:46:22.931Z,0.90
2022-08-10T06:47:22.837Z,1.10
2022-08-10T06:48:22.184Z,0.90
2022-08-10T06:49:22.943Z,0.90
2022-08-10T06:50:44.703Z,1.00
2022-08-10T06:51:23.150Z,0.90
2022-08-10T06:52:22.170Z,1.00
2022-08-10T06:53:22.476Z,0.80
2022-08-10T06:54:22.129Z,0.90
2022-08-10T06:55:49.989Z,0.80
2022-08-10T06:56:35.887Z,0.80
2022-08-10T06:57:23.095Z,0.90
2022-08-10T06:58:26.694Z,1.00
2022-08-10T06:59:23.073Z,1.00
2022-08-10T07:00:22.073Z,0.80
2022-08-10T07:01:22.146Z,1.00
2022-08-10T07:02:22.037Z,0.80
2022-08-10T07:03:22.034Z,0.90
2022-08-10T07:04:32.316Z,0.80
2022-08-10T07:05:23.013Z,0.70
2022-08-10T07:06:22.016Z,0.80
2022-08-10T07:07:22.006Z,0.90
2022-08-10T07:08:21.975Z,0.80
2022-08-10T07:09:21.984Z,0.80
2022-08-10T07:10:22.993Z,0.70
2022-08-10T07:11:21.937Z,0.70
2022-08-10T07:12:22.467Z,0.90
2022-08-10T07:14:16.951Z,0.50
2022-08-10T07:14:22.969Z,0.80
2022-08-10T07:15:21.930Z,0.70
2022-08-10T07:16:21.881Z,0.80
2022-08-10T07:17:21.895Z,0.90
2022-08-10T07:18:21.865Z,0.70
2022-08-10T07:19:21.851Z,0.80
2022-08-10T07:20:21.913Z,0.70
2022-08-10T07:21:21.856Z,0.80
2022-08-10T07:23:02.624Z,0.80
2022-08-10T07:23:58.541Z,0.80
2022-08-10T07:24:23.451Z,1.00
2022-08-10T07:25:21.822Z,0.80
2022-08-10T07:26:21.975Z,0.80
2022-08-10T07:27:21.795Z,0.80
2022-08-10T07:28:21.761Z,0.80
2022-08-10T07:29:52.811Z,0.60
2022-08-10T07:30:22.732Z,0.60
2022-08-10T07:31:35.431Z,0.70
2022-08-10T07:32:22.713Z,0.80
2022-08-10T07:33:21.704Z,0.80
2022-08-10T07:34:29.074Z,0.80
2022-08-10T07:35:22.684Z,0.90
2022-08-10T07:36:21.698Z,0.60
2022-08-10T07:37:21.657Z,0.60
2022-08-10T07:38:21.654Z,0.80
2022-08-10T07:40:02.103Z,0.60
2022-08-10T07:40:22.848Z,0.60
2022-08-10T07:41:21.615Z,0.80
2022-08-10T07:42:22.483Z,0.60
2022-08-10T07:43:21.586Z,0.90
2022-08-10T07:44:21.580Z,0.60
2022-08-10T07:45:21.570Z,0.60
2022-08-10T07:46:21.557Z,0.80
2022-08-10T07:47:53.748Z,0.80
2022-08-10T07:48:22.555Z,0.70
2022-08-10T07:49:21.547Z,0.70
2022-08-10T07:50:21.517Z,0.60
2022-08-10T07:51:21.504Z,0.60
2022-08-10T07:52:21.487Z,0.70
2022-08-10T07:53:21.511Z,0.60
2022-08-10T07:54:21.486Z,0.70
2022-08-10T07:56:03.448Z,0.70
2022-08-10T07:56:47.473Z,0.70
2022-08-10T07:57:30.639Z,0.70
2022-08-10T07:58:22.447Z,0.80
2022-08-10T07:59:21.435Z,0.60
2022-08-10T08:00:21.401Z,0.60
2022-08-10T08:01:21.472Z,0.50
2022-08-10T08:02:21.379Z,0.80
2022-08-10T08:03:21.376Z,0.70
2022-08-10T08:04:21.386Z,0.70
2022-08-10T08:05:57.576Z,0.70
2022-08-10T08:06:22.345Z,0.60
2022-08-10T08:07:21.610Z,0.70
2022-08-10T08:08:21.319Z,0.60
2022-08-10T08:09:21.328Z,0.70
2022-08-10T08:10:21.300Z,0.60
2022-08-10T08:11:26.322Z,0.80
2022-08-10T08:12:22.272Z,0.70
2022-08-10T08:13:21.275Z,0.60
2022-08-10T08:14:21.276Z,0.80
2022-08-10T08:16:20.295Z,1.00
2022-08-10T08:16:22.389Z,0.90
2022-08-10T08:17:21.216Z,0.80
2022-08-10T08:18:25.297Z,0.90
2022-08-10T08:19:27.903Z,1.10
2022-08-10T08:20:22.210Z,1.30
2022-08-10T08:24:05.689Z,0.70
2022-08-10T08:24:09.604Z,0.70
2022-08-10T08:24:16.370Z,0.50
2022-08-10T08:24:32.806Z,0.40
2022-08-10T08:25:22.146Z,0.60
2022-08-10T08:26:21.170Z,0.50
2022-08-10T08:27:21.113Z,0.60
2022-08-10T08:28:21.106Z,0.50
2022-08-10T08:29:21.101Z,0.50
2022-08-10T08:30:26.835Z,0.70
2022-08-10T08:31:22.102Z,0.40
2022-08-10T08:32:21.113Z,0.60
2022-08-10T08:33:42.568Z,0.50
2022-08-10T08:34:22.080Z,0.60
2022-08-10T08:35:21.020Z,0.60
2022-08-10T08:36:21.030Z,0.60
2022-08-10T08:38:29.686Z,0.40
2022-08-10T08:38:31.492Z,0.80
2022-08-10T08:39:22.046Z,0.40
2022-08-10T08:40:20.981Z,0.50
2022-08-10T08:41:20.955Z,0.80
2022-08-10T08:42:20.949Z,0.50
2022-08-10T08:43:21.475Z,0.60
2022-08-10T08:44:20.923Z,0.60
2022-08-10T08:45:20.918Z,0.40
2022-08-10T08:46:20.914Z,0.60
2022-08-10T08:48:02.286Z,1.00
2022-08-10T08:48:21.906Z,0.60
2022-08-10T08:50:05.059Z,0.60
2022-08-10T08:50:21.858Z,0.60
2022-08-10T08:52:09.463Z,0.50
2022-08-10T08:52:21.844Z,0.70
2022-08-10T08:53:22.328Z,0.50
2022-08-10T08:54:20.831Z,0.50
2022-08-10T08:56:03.453Z,0.50
2022-08-10T08:56:21.796Z,0.50
2022-08-10T08:57:49.140Z,0.60
2022-08-10T08:58:21.791Z,0.60
2022-08-10T08:59:20.785Z,0.80
2022-08-10T09:00:20.754Z,0.70
2022-08-10T09:01:20.814Z,0.50
2022-08-10T09:02:20.735Z,0.40
2022-08-10T09:03:23.929Z,0.50
2022-08-10T09:04:21.852Z,0.60
2022-08-10T09:05:20.695Z,0.60
2022-08-10T09:06:20.687Z,0.60
2022-08-10T09:07:56.260Z,0.60
2022-08-10T09:08:21.659Z,0.60
2022-08-10T09:09:20.674Z,0.60
2022-08-10T09:10:20.645Z,0.70
2022-08-10T09:11:20.628Z,0.70
2022-08-10T09:12:20.633Z,0.60
2022-08-10T09:13:20.640Z,0.70
2022-08-10T09:14:25.421Z,0.60
2022-08-10T09:15:40.743Z,0.60
2022-08-10T09:16:21.579Z,0.50
2022-08-10T09:17:20.563Z,0.60
2022-08-10T09:18:20.598Z,0.60
2022-08-10T09:19:36.343Z,0.60
2022-08-10T09:20:21.537Z,0.50
2022-08-10T09:21:20.532Z,0.70
2022-08-10T09:22:20.541Z,1.10
2022-08-10T09:23:20.512Z,0.80
2022-08-10T09:24:20.562Z,0.50
2022-08-10T09:25:20.482Z,0.60
2022-08-10T09:26:20.480Z,0.90
2022-08-10T09:27:20.494Z,0.60
2022-08-10T09:28:20.473Z,0.60
2022-08-10T09:29:21.439Z,0.40
2022-08-10T09:30:20.433Z,0.70
2022-08-10T09:31:23.153Z,0.60
2022-08-10T09:36:16.505Z,0.70
2022-08-10T09:36:22.105Z,0.50
2022-08-10T09:36:24.972Z,0.50
2022-08-10T09:36:29.312Z,0.60
2022-08-10T09:36:32.115Z,0.70
2022-08-10T09:37:21.359Z,0.50
2022-08-10T09:38:20.342Z,0.50
2022-08-10T09:40:12.632Z,0.70
2022-08-10T09:41:00.229Z,0.50
2022-08-10T09:41:21.365Z,0.50
2022-08-10T09:42:20.972Z,0.60
2022-08-10T09:43:25.430Z,0.60
2022-08-10T09:44:21.272Z,0.40
2022-08-10T09:45:20.969Z,0.50
2022-08-10T09:46:20.272Z,0.50
2022-08-10T09:47:20.978Z,0.40
2022-08-10T09:48:21.254Z,0.50
2022-08-10T09:49:22.414Z,0.50
2022-08-10T09:50:21.210Z,0.50
2022-08-10T09:51:44.227Z,0.50
2022-08-10T09:52:21.217Z,0.60
2022-08-10T09:53:20.174Z,0.50
2022-08-10T09:54:20.188Z,0.60
2022-08-10T09:55:20.973Z,0.40
2022-08-10T09:56:22.318Z,0.60
2022-08-10T09:57:44.815Z,0.50
2022-08-10T09:58:21.115Z,0.50
2022-08-10T09:59:26.642Z,0.40
2022-08-10T10:00:21.105Z,0.40
2022-08-10T10:01:56.333Z,0.50
2022-08-10T10:02:21.105Z,0.70
2022-08-10T10:03:25.861Z,0.60
2022-08-10T10:04:21.066Z,0.50
2022-08-10T10:05:20.045Z,0.40
2022-08-10T10:06:20.043Z,0.50
2022-08-10T10:07:20.045Z,0.50
2022-08-10T10:08:20.049Z,0.50
2022-08-10T10:09:20.016Z,0.30
2022-08-10T10:10:21.051Z,0.80
2022-08-10T10:11:19.983Z,0.40
2022-08-10T10:12:20.045Z,0.50
2022-08-10T10:13:20.010Z,0.50
2022-08-10T10:14:20.953Z,0.40
2022-08-10T10:15:24.391Z,0.60
2022-08-10T10:16:20.935Z,0.50
2022-08-10T10:17:19.919Z,0.40
2022-08-10T10:18:20.488Z,0.40
2022-08-10T10:19:20.006Z,0.40
2022-08-10T10:20:19.886Z,0.50
2022-08-10T10:21:24.136Z,0.50
2022-08-10T10:22:20.864Z,0.40
2022-08-10T10:23:19.870Z,0.60
2022-08-10T10:24:22.812Z,0.50
2022-08-10T10:25:21.259Z,0.50
2022-08-10T10:26:20.498Z,0.70
2022-08-10T10:27:19.821Z,0.30
2022-08-10T10:28:19.803Z,0.50
2022-08-10T10:29:55.891Z,0.40
2022-08-10T10:30:20.772Z,0.40
2022-08-10T10:31:22.496Z,0.40
2022-08-10T10:32:22.481Z,0.50
2022-08-10T10:33:19.804Z,0.50
2022-08-10T10:34:19.759Z,0.40
2022-08-10T10:35:20.492Z,0.50
2022-08-10T10:36:19.718Z,0.40
2022-08-10T10:37:19.708Z,0.40
2022-08-10T10:38:19.701Z,0.50
2022-08-10T10:39:23.944Z,0.40
2022-08-10T10:40:19.695Z,0.40
2022-08-10T10:41:19.679Z,0.40
2022-08-10T10:42:42.160Z,0.40
2022-08-10T10:43:20.642Z,0.50
2022-08-10T10:44:19.626Z,0.40
2022-08-10T10:45:19.657Z,0.40
2022-08-10T10:46:23.022Z,0.50
2022-08-10T10:47:19.598Z,0.50
2022-08-10T10:48:24.109Z,0.50
2022-08-10T10:49:21.490Z,0.50
2022-08-10T10:50:19.563Z,0.50
2022-08-10T10:51:19.576Z,0.40
2022-08-10T10:52:22.496Z,0.40
2022-08-10T10:53:19.542Z,0.40
2022-08-10T10:54:19.536Z,0.50
2022-08-10T10:55:19.539Z,0.60
2022-08-10T10:56:19.523Z,0.40
2022-08-10T10:57:19.528Z,0.50
2022-08-10T10:58:21.167Z,0.40
2022-08-10T10:59:56.043Z,0.40
2022-08-10T11:00:20.460Z,0.70
2022-08-10T11:01:19.518Z,0.60
2022-08-10T11:02:19.455Z,0.30
2022-08-10T11:03:19.454Z,0.30
2022-08-10T11:04:19.421Z,0.50
2022-08-10T11:05:22.035Z,0.40
2022-08-10T11:06:19.401Z,0.40
2022-08-10T11:07:21.879Z,0.40
2022-08-10T11:08:19.998Z,0.40
2022-08-10T11:10:01.217Z,0.40
2022-08-10T11:10:32.836Z,0.40
2022-08-10T11:12:00.373Z,0.40
2022-08-10T11:12:22.348Z,0.40
2022-08-10T11:14:25.178Z,0.50
2022-08-10T11:14:26.463Z,0.30
2022-08-10T11:15:20.300Z,0.50
2022-08-10T11:16:19.291Z,0.60
2022-08-10T11:17:19.272Z,0.50
2022-08-10T11:18:19.314Z,0.30
2022-08-10T11:19:19.252Z,0.80
2022-08-10T11:20:19.273Z,0.50
2022-08-10T11:21:19.258Z,0.30
2022-08-10T11:22:19.256Z,0.50
2022-08-10T11:23:19.213Z,0.40
2022-08-10T11:24:47.376Z,0.40
2022-08-10T11:25:20.193Z,0.40
2022-08-10T11:26:19.202Z,0.50
2022-08-10T11:27:22.337Z,0.30
2022-08-10T11:28:19.212Z,0.40
2022-08-10T11:29:19.146Z,0.30
2022-08-10T11:30:19.200Z,0.30
2022-08-10T11:31:19.159Z,0.30
2022-08-10T11:32:20.745Z,0.30
2022-08-10T11:33:30.960Z,0.20
2022-08-10T11:34:48.316Z,0.30
2022-08-10T11:35:20.118Z,0.50
2022-08-10T11:36:19.069Z,0.50
2022-08-10T11:37:19.061Z,0.30
2022-08-10T11:38:32.072Z,0.30
2022-08-10T11:39:20.114Z,0.50
2022-08-10T11:40:19.056Z,0.60
2022-08-10T11:42:10.323Z,0.30
2022-08-10T11:42:31.456Z,0.30
2022-08-10T11:43:21.137Z,0.40
2022-08-10T11:44:25.510Z,0.40
2022-08-10T11:45:18.985Z,0.30
2022-08-10T11:46:28.058Z,0.40
2022-08-10T11:47:19.991Z,0.30
2022-08-10T11:48:53.558Z,0.40
2022-08-10T11:49:20.449Z,0.30
2022-08-10T11:50:18.923Z,0.30
2022-08-10T11:51:18.913Z,0.40
2022-08-10T11:52:18.908Z,0.50
2022-08-10T11:53:18.939Z,0.80
2022-08-10T11:54:18.927Z,0.50
2022-08-10T11:55:18.893Z,0.40
2022-08-10T11:56:18.865Z,0.50
2022-08-10T11:57:18.878Z,0.40
2022-08-10T11:58:18.845Z,0.30
2022-08-10T11:59:18.823Z,0.40
2022-08-10T12:00:18.829Z,0.40
2022-08-10T12:01:18.825Z,0.60
2022-08-10T12:02:18.867Z,0.30
2022-08-10T12:03:18.783Z,0.40
2022-08-10T12:04:18.790Z,0.40
2022-08-10T12:05:18.767Z,0.40
2022-08-10T12:06:33.773Z,0.40
2022-08-10T12:10:02.910Z,0.30
2022-08-10T12:10:07.520Z,0.30
2022-08-10T12:10:11.244Z,0.40
2022-08-10T12:10:19.746Z,0.30
2022-08-10T12:11:23.754Z,0.50
2022-08-10T12:12:19.695Z,0.30
2022-08-10T12:13:18.690Z,0.30
2022-08-10T12:14:21.779Z,0.30
2022-08-10T12:15:18.691Z,0.30
2022-08-10T12:16:18.666Z,0.40
2022-08-10T12:17:18.641Z,0.50
2022-08-10T12:18:18.627Z,0.20
2022-08-10T12:19:18.623Z,0.50
2022-08-10T12:20:18.605Z,0.50
2022-08-10T12:21:21.585Z,0.30
2022-08-10T12:22:18.601Z,0.40
2022-08-10T12:23:18.587Z,0.40
2022-08-10T12:24:18.573Z,0.30
2022-08-10T12:25:56.274Z,0.20
2022-08-10T12:26:19.558Z,0.40
2022-08-10T12:27:18.549Z,0.40
2022-08-10T12:28:18.527Z,0.20
2022-08-10T12:29:21.390Z,0.30
2022-08-10T12:30:19.505Z,0.30
2022-08-10T12:31:18.527Z,0.50
2022-08-10T12:32:18.512Z,0.30
2022-08-10T12:33:19.474Z,0.50
2022-08-10T12:34:18.482Z,0.50
2022-08-10T12:35:22.778Z,0.50
2022-08-10T12:36:20.464Z,0.30
2022-08-10T12:37:18.423Z,0.30
2022-08-10T12:38:18.444Z,0.30
2022-08-10T12:39:18.487Z,0.30
2022-08-10T12:40:34.579Z,0.40
2022-08-10T12:41:19.381Z,0.30
2022-08-10T12:42:34.889Z,0.30
2022-08-10T12:44:06.516Z,0.40
2022-08-10T12:44:19.354Z,0.40
2022-08-10T12:45:18.351Z,0.30
2022-08-10T12:46:18.338Z,0.30
2022-08-10T12:47:18.329Z,0.20
2022-08-10T12:48:18.351Z,0.30
2022-08-10T12:49:18.324Z,0.40
2022-08-10T12:50:30.580Z,0.30
2022-08-10T12:51:20.027Z,0.40
2022-08-10T12:52:18.278Z,0.30
2022-08-10T12:53:18.278Z,0.30
2022-08-10T12:54:31.415Z,0.50
2022-08-10T12:55:19.260Z,0.30
2022-08-10T12:56:18.233Z,0.30
2022-08-10T12:57:18.221Z,0.20
2022-08-10T12:58:59.159Z,0.50
2022-08-10T12:59:19.197Z,0.40
2022-08-10T13:00:18.183Z,0.30
2022-08-10T13:01:18.721Z,0.30
2022-08-10T13:02:18.332Z,0.40
2022-08-10T13:03:18.163Z,0.20
2022-08-10T13:04:23.204Z,0.50
2022-08-10T13:05:19.204Z,0.50
2022-08-10T13:06:18.150Z,0.40
2022-08-10T13:08:24.345Z,0.40
2022-08-10T13:08:26.516Z,0.40
2022-08-10T13:09:19.087Z,0.20
2022-08-10T13:10:18.078Z,0.50
2022-08-10T13:11:18.527Z,0.40
2022-08-10T13:12:38.250Z,0.30
2022-08-10T13:13:19.054Z,0.20
2022-08-10T13:14:23.520Z,0.30
2022-08-10T13:15:45.946Z,0.40
2022-08-10T13:16:19.055Z,0.30
2022-08-10T13:17:21.215Z,0.30
2022-08-10T13:18:19.751Z,0.40